Time;durP1;ratioP1;P1;durP2;ratioP2;P2;SDS_P1;SDS_P2;PMS_P1;PMS_P2;Temp;Humidity;BMP_temperature;BMP_pressure;BME280_temperature;BME280_humidity;BME280_pressure;Samples;Min_cycle;Max_cycle;Signal;HPM_P1;HPM_P2
2022/04/20 04:01:49;;;;;;;14.50;8.27;;;7.00;95.70;;;;;;5361717;23;20492;-78
2022/04/20 04:04:16;;;;;;;8.77;6.60;;;6.90;95.80;;;;;;4967527;28;20545;-78
2022/04/20 04:06:42;;;;;;;12.70;5.70;;;6.90;95.80;;;;;;4966617;28;20468;-78
2022/04/20 04:09:09;;;;;;;7.30;5.47;;;6.90;95.80;;;;;;4967344;28;20476;-78
2022/04/20 04:11:36;;;;;;;8.83;5.50;;;6.90;96.00;;;;;;4978578;28;20478;-78
2022/04/20 04:14:03;;;;;;;6.63;5.30;;;6.80;96.30;;;;;;4986725;28;20463;-78
2022/04/20 04:16:30;;;;;;;6.83;6.10;;;6.80;96.60;;;;;;4985840;28;20960;-78
2022/04/20 04:18:58;;;;;;;7.70;5.97;;;6.80;96.50;;;;;;4986601;28;20549;-76
2022/04/20 04:21:25;;;;;;;7.87;6.40;;;6.70;96.90;;;;;;4985559;28;20494;-78
2022/04/20 04:23:52;;;;;;;6.20;5.23;;;6.70;96.70;;;;;;4986902;28;20510;-78
2022/04/20 04:26:19;;;;;;;8.43;5.90;;;6.70;96.90;;;;;;4985110;28;20462;-77
2022/04/20 04:28:45;;;;;;;9.40;6.10;;;6.70;97.00;;;;;;4986160;28;20459;-78
2022/04/20 04:31:13;;;;;;;6.33;5.13;;;6.70;97.10;;;;;;4986193;28;20482;-78
2022/04/20 04:33:40;;;;;;;11.13;4.80;;;6.70;96.80;;;;;;4986093;28;20833;-76
2022/04/20 04:36:08;;;;;;;6.47;4.87;;;6.70;96.80;;;;;;4987008;28;20459;-76
2022/04/20 04:38:35;;;;;;;5.93;4.57;;;6.70;96.60;;;;;;4987080;28;20462;-76
2022/04/20 04:41:02;;;;;;;10.50;5.10;;;6.70;97.10;;;;;;4987224;28;20482;-76
2022/04/20 04:43:29;;;;;;;7.40;5.40;;;6.70;97.40;;;;;;4987341;28;20573;-76
2022/04/20 04:48:40;;;;;;;7.70;5.03;;;6.60;98.20;;;;;;4987206;28;20427;-76
2022/04/20 04:51:10;;;;;;;6.50;4.70;;;6.50;98.30;;;;;;4987392;28;20511;-76
2022/04/20 04:53:37;;;;;;;5.47;4.80;;;6.50;99.10;;;;;;4987199;28;20455;-76
2022/04/20 04:56:04;;;;;;;5.23;4.73;;;6.50;98.60;;;;;;4988758;28;20455;-68
2022/04/20 04:58:31;;;;;;;5.60;4.97;;;6.60;98.40;;;;;;4991593;28;20546;-73
2022/04/20 05:00:59;;;;;;;9.03;5.93;;;6.60;98.80;;;;;;4988019;28;20502;-72
2022/04/20 05:03:27;;;;;;;7.07;5.73;;;6.60;98.90;;;;;;4988195;28;20542;-73
2022/04/20 05:05:54;;;;;;;6.67;5.80;;;6.60;99.10;;;;;;4988242;28;20459;-73
2022/04/20 05:08:22;;;;;;;6.40;4.83;;;6.70;99.20;;;;;;4987274;28;20467;-74
2022/04/20 05:10:49;;;;;;;5.43;4.93;;;6.70;99.40;;;;;;4987330;28;20488;-73
2022/04/20 05:13:16;;;;;;;7.50;5.57;;;6.70;99.30;;;;;;4987948;28;20443;-72
2022/04/20 05:15:43;;;;;;;7.90;5.83;;;6.70;99.70;;;;;;4988065;28;20455;-74
2022/04/20 05:18:10;;;;;;;6.37;5.50;;;6.70;99.90;;;;;;4987045;28;20558;-73
2022/04/20 05:20:36;;;;;;;6.90;5.43;;;6.70;99.90;;;;;;4987769;28;20475;-72
2022/04/20 05:23:06;;;;;;;7.47;5.40;;;6.70;99.90;;;;;;4987707;28;20499;-73
2022/04/20 05:25:34;;;;;;;6.73;5.43;;;6.70;99.90;;;;;;4988260;28;20451;-73
2022/04/20 05:28:01;;;;;;;5.90;5.27;;;6.60;99.90;;;;;;4987312;28;20542;-74
2022/04/20 05:30:28;;;;;;;7.90;5.30;;;6.60;99.90;;;;;;4987982;28;20448;-73
2022/04/20 05:32:55;;;;;;;5.40;4.90;;;6.70;99.90;;;;;;4987617;28;20460;-73
2022/04/20 05:35:22;;;;;;;6.43;5.13;;;6.70;99.90;;;;;;4987946;28;20451;-72
2022/04/20 05:43:19;;;;;;;10.33;6.10;;;6.80;99.90;;;;;;4990385;28;20479;-73
2022/04/20 05:45:46;;;;;;;7.67;6.00;;;6.80;99.90;;;;;;4990942;28;20835;-74
2022/04/20 05:48:14;;;;;;;8.03;5.60;;;6.80;99.90;;;;;;4990367;28;20463;-73
2022/04/20 05:50:41;;;;;;;6.53;5.83;;;6.90;99.90;;;;;;4990813;28;20514;-73
2022/04/20 05:53:08;;;;;;;6.77;5.80;;;6.90;99.90;;;;;;4990678;28;20455;-73
2022/04/20 05:55:36;;;;;;;7.70;6.37;;;6.90;99.90;;;;;;4991564;28;20457;-73
2022/04/20 05:58:03;;;;;;;7.57;5.10;;;6.90;99.90;;;;;;4990649;28;20459;-76
2022/04/20 06:00:30;;;;;;;6.90;5.87;;;6.90;99.90;;;;;;4990720;28;20471;-73
2022/04/20 06:02:58;;;;;;;6.10;5.50;;;7.00;99.90;;;;;;4991127;28;20519;-73
2022/04/20 06:05:25;;;;;;;7.60;6.13;;;7.00;99.90;;;;;;4991482;28;20546;-74
2022/04/20 06:07:51;;;;;;;7.00;5.90;;;7.00;99.90;;;;;;4990214;28;20461;-73
2022/04/20 06:10:18;;;;;;;5.93;4.93;;;7.00;99.90;;;;;;4990458;28;20458;-73
2022/04/20 06:12:46;;;;;;;5.93;5.33;;;7.00;99.90;;;;;;4991308;28;20606;-73
2022/04/20 06:15:13;;;;;;;13.07;5.40;;;7.00;99.90;;;;;;4990540;28;20459;-73
2022/04/20 06:17:40;;;;;;;5.57;5.00;;;7.00;99.90;;;;;;4989372;28;20459;-73
2022/04/20 06:20:08;;;;;;;6.50;5.43;;;7.00;99.90;;;;;;4989949;28;20462;-75
2022/04/20 06:22:35;;;;;;;8.17;5.33;;;7.10;99.90;;;;;;4988158;28;20471;-73
2022/04/20 06:25:02;;;;;;;6.10;5.50;;;7.10;99.90;;;;;;4987918;28;20505;-72
2022/04/20 06:27:30;;;;;;;6.37;5.73;;;7.10;99.90;;;;;;4987232;28;20452;-72
2022/04/20 06:29:58;;;;;;;7.13;5.20;;;7.10;99.90;;;;;;4988329;28;20462;-75
2022/04/20 06:32:25;;;;;;;6.60;5.57;;;7.20;99.90;;;;;;4988270;28;20475;-72
2022/04/20 06:34:52;;;;;;;5.80;5.30;;;7.20;99.90;;;;;;4988184;28;20766;-72
2022/04/20 06:37:19;;;;;;;6.20;5.60;;;7.30;99.90;;;;;;4987427;28;20502;-72
2022/04/20 06:39:46;;;;;;;7.70;5.30;;;7.30;99.90;;;;;;4987693;28;20627;-74
2022/04/20 06:42:13;;;;;;;6.47;5.80;;;7.40;99.90;;;;;;4987988;28;20476;-72
2022/04/20 06:44:40;;;;;;;5.37;4.90;;;7.40;99.90;;;;;;4987926;28;20812;-72
2022/04/20 06:47:09;;;;;;;5.67;5.13;;;7.50;99.90;;;;;;4987119;28;20463;-73
2022/04/20 06:49:36;;;;;;;5.53;4.60;;;7.50;99.90;;;;;;4987488;28;20464;-73
2022/04/20 07:00:19;;;;;;;5.37;4.87;;;7.70;99.90;;;;;;4987549;28;20577;-74
2022/04/20 07:02:47;;;;;;;5.57;4.97;;;7.90;99.90;;;;;;4987635;28;20928;-73
2022/04/20 07:05:14;;;;;;;5.40;4.30;;;7.90;99.90;;;;;;4987054;28;20491;-73
2022/04/20 07:07:41;;;;;;;5.40;4.70;;;8.00;99.90;;;;;;4986925;28;20624;-73
2022/04/20 07:10:09;;;;;;;6.10;4.80;;;8.10;99.90;;;;;;4987632;28;20452;-73
2022/04/20 07:12:36;;;;;;;5.00;4.50;;;8.20;99.90;;;;;;4988779;28;20484;-73
2022/04/20 07:15:03;;;;;;;6.13;4.37;;;8.30;99.90;;;;;;4989102;28;20554;-74
2022/04/20 07:17:30;;;;;;;5.43;4.80;;;8.40;99.90;;;;;;4988425;28;20459;-73
2022/04/20 07:20:00;;;;;;;4.80;4.30;;;8.40;99.90;;;;;;4989300;28;20466;-73
2022/04/20 07:22:27;;;;;;;5.50;4.33;;;8.50;99.90;;;;;;4988875;28;20518;-74
2022/04/20 07:24:54;;;;;;;4.50;4.10;;;8.60;99.90;;;;;;4988460;28;21023;-73
2022/04/20 07:27:21;;;;;;;4.27;3.87;;;8.70;99.90;;;;;;4987836;28;20459;-74
2022/04/20 07:29:48;;;;;;;4.50;4.10;;;8.90;99.30;;;;;;4988609;28;20534;-74
2022/04/20 07:32:14;;;;;;;5.63;4.20;;;9.00;99.40;;;;;;4988393;28;20475;-74
2022/04/20 07:34:41;;;;;;;6.37;4.53;;;9.00;99.00;;;;;;4988762;28;20842;-73
2022/04/20 07:37:09;;;;;;;4.53;3.60;;;9.20;98.90;;;;;;4988390;28;20455;-74
2022/04/20 07:39:36;;;;;;;5.40;3.97;;;9.30;99.00;;;;;;4989154;28;20554;-74
2022/04/20 07:42:05;;;;;;;5.60;4.17;;;9.40;99.10;;;;;;4989271;28;20476;-74
2022/04/20 07:44:32;;;;;;;4.67;4.27;;;9.60;98.40;;;;;;4989406;28;20504;-74
2022/04/20 07:46:58;;;;;;;4.30;3.60;;;9.80;99.10;;;;;;4988407;28;20826;-74
2022/04/20 07:52:11;;;;;;;4.73;4.30;;;10.10;97.60;;;;;;4987762;28;20505;-75
2022/04/20 07:54:38;;;;;;;4.90;3.50;;;10.30;97.20;;;;;;4987413;28;20462;-75
2022/04/20 07:57:05;;;;;;;6.00;4.00;;;10.50;97.30;;;;;;4986208;28;20460;-74
2022/04/20 07:59:32;;;;;;;4.70;3.40;;;10.60;96.80;;;;;;4987622;28;20455;-75
2022/04/20 08:01:58;;;;;;;6.10;4.43;;;10.70;95.40;;;;;;4986200;28;21182;-75
2022/04/20 08:04:25;;;;;;;6.23;4.00;;;10.80;95.80;;;;;;4986791;28;20495;-75
2022/04/20 08:06:52;;;;;;;4.33;3.60;;;11.00;94.90;;;;;;4986832;28;20456;-75
2022/04/20 08:09:20;;;;;;;4.10;3.70;;;11.20;95.10;;;;;;4988229;28;20979;-76
2022/04/20 08:11:47;;;;;;;4.70;3.50;;;11.40;94.80;;;;;;4987013;28;20489;-71
2022/04/20 08:14:14;;;;;;;4.10;3.50;;;11.60;94.30;;;;;;4987015;28;20483;-70
2022/04/20 08:16:43;;;;;;;5.00;4.50;;;11.80;94.50;;;;;;4986003;28;20460;-74
2022/04/20 08:19:10;;;;;;;4.30;3.83;;;12.10;95.00;;;;;;4986820;28;20494;-74
2022/04/20 08:21:37;;;;;;;5.13;3.70;;;12.30;93.80;;;;;;4987191;28;20484;-73
2022/04/20 08:24:05;;;;;;;3.83;3.40;;;12.40;93.70;;;;;;4986706;28;20590;-75
2022/04/20 08:26:33;;;;;;;4.00;3.60;;;12.40;92.90;;;;;;4986301;28;20474;-73
2022/04/20 08:29:00;;;;;;;4.33;3.73;;;12.50;92.40;;;;;;4987626;28;20487;-73
2022/04/20 08:31:27;;;;;;;4.10;3.23;;;12.50;91.40;;;;;;4987988;28;20563;-73
2022/04/20 08:33:54;;;;;;;4.67;3.80;;;12.60;92.10;;;;;;4986907;28;20954;-74
2022/04/20 08:36:20;;;;;;;4.10;3.67;;;12.70;91.00;;;;;;4986229;28;20456;-74
2022/04/20 08:38:47;;;;;;;4.10;3.40;;;12.90;90.90;;;;;;4986834;28;20555;-74
2022/04/20 08:41:16;;;;;;;6.10;3.50;;;13.10;91.00;;;;;;4987383;28;21023;-74
2022/04/20 08:43:44;;;;;;;4.63;3.57;;;13.20;91.30;;;;;;4987188;28;20462;-75
2022/04/20 08:46:11;;;;;;;5.57;3.60;;;13.50;90.60;;;;;;4987296;28;20451;-74
2022/04/20 08:48:39;;;;;;;3.93;3.27;;;14.00;90.50;;;;;;4986764;28;20455;-74
2022/04/20 08:51:07;;;;;;;5.00;3.70;;;14.10;90.30;;;;;;4987267;28;20572;-74
2022/04/20 08:53:34;;;;;;;5.67;3.70;;;14.20;89.20;;;;;;4987647;28;20456;-74
2022/04/20 08:58:50;;;;;;;4.60;3.37;;;14.50;89.40;;;;;;4987360;28;20427;-74
2022/04/20 09:01:18;;;;;;;3.50;2.87;;;14.60;83.90;;;;;;4987628;28;20484;-75
2022/04/20 09:03:46;;;;;;;4.83;3.30;;;14.60;82.30;;;;;;4987238;28;20448;-76
2022/04/20 09:06:14;;;;;;;3.63;3.33;;;14.60;83.30;;;;;;4986671;28;20471;-76
2022/04/20 09:08:41;;;;;;;4.40;3.17;;;14.60;84.40;;;;;;4986525;28;20555;-75
2022/04/20 09:11:08;;;;;;;4.30;2.77;;;14.70;83.30;;;;;;4987103;28;20483;-75
2022/04/20 09:13:39;;;;;;;3.10;2.80;;;14.80;82.10;;;;;;4989161;28;20831;-75
2022/04/20 09:16:08;;;;;;;3.33;2.83;;;14.90;79.70;;;;;;4991034;28;20447;-75
2022/04/20 09:18:37;;;;;;;5.83;3.43;;;15.00;78.90;;;;;;4990222;28;20455;-75
2022/04/20 09:21:07;;;;;;;3.80;3.20;;;15.00;80.30;;;;;;4990594;28;20489;-75
2022/04/20 09:23:34;;;;;;;2.87;2.67;;;15.00;81.60;;;;;;4990644;28;20521;-73
2022/04/20 09:26:09;;;;;;;6.40;3.83;;;15.20;80.90;;;;;;4990211;28;20870;-75
2022/04/20 09:28:36;;;;;;;7.10;3.37;;;15.40;79.20;;;;;;4989800;28;20936;-75
2022/04/20 09:31:04;;;;;;;4.87;2.77;;;15.70;79.60;;;;;;4989710;28;20610;-75
2022/04/20 09:33:50;;;;;;;4.50;3.20;;;15.90;78.00;;;;;;4990049;28;20960;-75
2022/04/20 09:36:45;;;;;;;3.20;2.90;;;16.00;77.50;;;;;;4989579;28;21030;-75
2022/04/20 09:39:13;;;;;;;4.37;2.73;;;16.10;76.20;;;;;;4989779;28;20448;-75
2022/04/20 09:41:58;;;;;;;5.23;3.37;;;16.30;76.70;;;;;;4989605;28;20507;-75
2022/04/20 09:44:26;;;;;;;3.40;2.67;;;16.80;77.60;;;;;;4989278;28;20930;-75
2022/04/20 09:49:54;;;;;;;3.80;3.03;;;17.80;76.20;;;;;;4989535;28;20587;-74
2022/04/20 09:52:21;;;;;;;3.10;2.80;;;18.20;75.80;;;;;;4989889;28;20594;-75
2022/04/20 09:54:53;;;;;;;3.63;3.27;;;18.50;74.10;;;;;;4989724;28;20495;-74
2022/04/20 09:57:21;;;;;;;3.47;3.17;;;18.50;74.20;;;;;;4988732;28;20455;-74
2022/04/20 09:59:59;;;;;;;3.77;2.90;;;18.30;75.60;;;;;;4994824;28;20963;-75
2022/04/20 10:02:27;;;;;;;3.80;3.00;;;18.10;73.80;;;;;;4993007;28;20475;-75
2022/04/20 10:04:56;;;;;;;4.53;3.00;;;17.90;75.60;;;;;;4989957;28;20538;-75
2022/04/20 10:07:23;;;;;;;5.33;2.90;;;17.80;75.00;;;;;;4990137;28;20480;-75
2022/04/20 10:09:50;;;;;;;3.23;2.93;;;18.10;76.30;;;;;;4990153;28;20513;-75
2022/04/20 10:12:19;;;;;;;4.30;3.03;;;18.60;73.70;;;;;;4989614;28;20499;-75
2022/04/20 10:17:44;;;;;;;6.27;3.07;;;18.90;73.90;;;;;;4988173;28;20439;-76
2022/04/20 10:20:13;;;;;;;4.07;3.17;;;18.80;72.90;;;;;;4988057;28;20943;-75
2022/04/20 10:22:42;;;;;;;3.43;2.83;;;18.80;75.40;;;;;;4989000;28;20546;-76
2022/04/20 10:25:09;;;;;;;3.00;2.70;;;18.70;73.70;;;;;;4987690;28;20562;-76
2022/04/20 10:27:48;;;;;;;3.67;3.03;;;19.20;73.10;;;;;;4987749;28;20462;-76
2022/04/20 10:30:20;;;;;;;3.50;3.00;;;20.20;71.20;;;;;;4988674;28;20491;-76
2022/04/20 10:32:53;;;;;;;5.63;3.50;;;20.40;70.40;;;;;;4988229;28;20550;-76
2022/04/20 10:35:22;;;;;;;5.40;3.10;;;20.60;67.30;;;;;;4988940;28;20444;-75
2022/04/20 10:38:08;;;;;;;6.20;3.60;;;20.30;70.80;;;;;;4987294;28;20466;-76
2022/04/20 10:40:35;;;;;;;4.33;3.50;;;20.00;70.10;;;;;;4989991;28;20503;-75
2022/04/20 10:43:26;;;;;;;5.50;3.23;;;19.70;71.20;;;;;;4991261;28;20460;-75
2022/04/20 10:46:24;;;;;;;4.23;3.20;;;19.60;70.00;;;;;;4971312;28;20498;-76
2022/04/20 10:48:55;;;;;;;3.13;2.83;;;19.60;71.00;;;;;;4909438;29;20436;-76
2022/04/20 10:51:25;;;;;;;3.70;3.17;;;19.70;71.00;;;;;;4973430;28;20513;-76
2022/04/20 10:53:56;;;;;;;3.80;3.47;;;19.90;70.90;;;;;;4991299;28;20796;-76
2022/04/20 10:56:23;;;;;;;3.43;3.13;;;19.80;67.50;;;;;;4988265;28;20456;-76
2022/04/20 10:59:10;;;;;;;3.57;3.20;;;19.50;69.10;;;;;;4988347;28;20491;-75
2022/04/20 11:02:09;;;;;;;3.73;3.40;;;19.40;68.30;;;;;;4987807;28;20914;-75
2022/04/20 11:04:39;;;;;;;7.33;3.27;;;19.30;67.90;;;;;;4988014;28;21098;-72
2022/04/20 11:07:22;;;;;;;3.23;2.90;;;19.40;69.90;;;;;;4986607;28;20449;-71
2022/04/20 11:09:57;;;;;;;3.50;3.10;;;19.60;69.50;;;;;;4988051;28;20451;-73
2022/04/20 11:18:39;;;;;;;3.70;3.40;;;19.80;68.50;;;;;;4987075;28;20810;-73
2022/04/20 11:21:16;;;;;;;4.07;3.03;;;19.60;68.60;;;;;;4988103;28;20570;-71
2022/04/20 11:24:08;;;;;;;3.70;3.40;;;19.60;67.20;;;;;;4987670;28;20986;-74
2022/04/20 11:26:39;;;;;;;3.30;3.00;;;19.60;69.60;;;;;;4990327;28;20495;-72
2022/04/20 11:29:14;;;;;;;4.53;2.80;;;19.70;69.00;;;;;;4991560;28;20471;-73
2022/04/20 11:31:43;;;;;;;3.50;3.20;;;19.70;68.80;;;;;;4988941;28;20570;-73
2022/04/20 11:34:11;;;;;;;3.60;2.50;;;19.80;68.10;;;;;;4988744;28;20464;-70
2022/04/20 11:36:43;;;;;;;2.83;2.40;;;19.80;67.00;;;;;;4985516;28;20461;-72
2022/04/20 11:39:12;;;;;;;4.60;3.20;;;19.80;67.00;;;;;;4987552;28;21302;-71
2022/04/20 11:41:39;;;;;;;4.20;3.00;;;19.80;66.10;;;;;;4987446;28;20638;-71
2022/04/20 11:44:20;;;;;;;3.47;2.67;;;19.60;67.10;;;;;;4987526;28;20452;-71
2022/04/20 11:46:47;;;;;;;4.33;3.00;;;19.60;67.70;;;;;;4986319;28;20506;-70
2022/04/20 11:49:15;;;;;;;3.10;2.80;;;19.50;64.70;;;;;;4987456;28;20558;-71
2022/04/20 11:51:45;;;;;;;2.50;2.30;;;19.40;67.10;;;;;;4987169;28;20507;-71
2022/04/20 11:54:20;;;;;;;2.60;2.30;;;19.50;66.90;;;;;;4987144;28;20932;-71
2022/04/20 11:56:47;;;;;;;3.13;2.80;;;19.60;67.40;;;;;;4986067;28;20558;-73
2022/04/20 11:59:17;;;;;;;3.90;3.00;;;19.60;65.50;;;;;;4986887;28;20960;-71
2022/04/20 12:01:47;;;;;;;3.40;3.10;;;19.70;63.70;;;;;;4986376;28;20499;-76
2022/04/20 12:04:15;;;;;;;2.60;2.40;;;19.60;66.00;;;;;;4986722;28;20879;-76
2022/04/20 12:06:51;;;;;;;3.23;2.77;;;19.80;64.30;;;;;;4987480;28;20501;-75
2022/04/20 12:09:24;;;;;;;2.60;2.40;;;19.70;64.40;;;;;;4990403;28;21141;-75
2022/04/20 12:11:53;;;;;;;3.90;3.00;;;19.60;64.90;;;;;;4990240;28;20578;-74
2022/04/20 12:14:20;;;;;;;4.40;2.57;;;19.50;66.50;;;;;;4990312;28;20454;-74
2022/04/20 12:16:47;;;;;;;2.70;2.50;;;19.50;66.00;;;;;;4989928;28;20467;-75
2022/04/20 12:19:14;;;;;;;2.67;2.47;;;19.50;66.00;;;;;;4989834;28;20546;-74
2022/04/20 12:21:45;;;;;;;3.07;2.77;;;19.60;63.10;;;;;;4989614;28;20472;-75
2022/04/20 12:24:20;;;;;;;2.80;2.50;;;19.60;64.20;;;;;;4989467;28;20543;-75
2022/04/20 12:26:49;;;;;;;4.50;3.10;;;19.60;62.10;;;;;;4989627;28;20486;-75
2022/04/20 12:29:20;;;;;;;3.50;2.83;;;19.60;63.70;;;;;;4990069;28;20452;-75
2022/04/20 12:31:51;;;;;;;3.13;2.37;;;19.40;64.00;;;;;;4989912;28;20479;-75
2022/04/20 12:34:19;;;;;;;3.50;2.97;;;19.30;63.80;;;;;;4989752;28;20460;-75
2022/04/20 12:37:00;;;;;;;2.50;2.30;;;19.20;62.80;;;;;;4989231;28;20460;-75
2022/04/20 12:39:32;;;;;;;3.40;2.53;;;19.20;64.60;;;;;;4989458;28;20460;-75
2022/04/20 12:42:02;;;;;;;2.80;2.50;;;19.30;64.40;;;;;;4989213;28;20566;-75
2022/04/20 12:44:51;;;;;;;3.60;2.50;;;19.40;62.30;;;;;;4989588;28;20436;-76
2022/04/20 12:47:38;;;;;;;3.60;2.20;;;19.30;63.00;;;;;;4988756;28;20471;-75
2022/04/20 12:50:17;;;;;;;4.23;2.77;;;19.30;62.30;;;;;;4989491;28;20448;-75
2022/04/20 12:52:50;;;;;;;2.73;2.50;;;19.30;62.90;;;;;;4989094;28;20463;-75
2022/04/20 12:55:17;;;;;;;3.20;2.90;;;19.20;62.50;;;;;;4988431;28;20471;-74
2022/04/20 13:03:34;;;;;;;2.60;2.40;;;19.20;62.70;;;;;;4985977;28;20819;-76
2022/04/20 13:06:01;;;;;;;2.80;2.53;;;19.20;63.90;;;;;;4986209;28;20480;-76
2022/04/20 13:08:28;;;;;;;3.90;3.33;;;19.20;64.80;;;;;;4985511;28;20539;-76
2022/04/20 13:10:55;;;;;;;4.73;2.40;;;19.20;60.70;;;;;;4985852;28;20554;-74
2022/04/20 13:13:27;;;;;;;4.43;2.70;;;19.30;61.90;;;;;;4985895;28;20462;-74
2022/04/20 13:15:56;;;;;;;4.20;2.87;;;19.40;62.40;;;;;;4985582;28;20506;-75
2022/04/20 13:18:23;;;;;;;2.13;1.97;;;19.50;63.20;;;;;;4985062;28;20460;-75
2022/04/20 13:20:50;;;;;;;3.57;2.43;;;19.50;64.80;;;;;;4985738;28;20566;-75
2022/04/20 13:23:16;;;;;;;4.10;2.70;;;19.50;63.80;;;;;;4985918;28;20539;-75
2022/04/20 13:28:29;;;;;;;3.50;2.80;;;19.70;61.90;;;;;;4985150;28;20899;-75
2022/04/20 13:30:56;;;;;;;2.63;2.20;;;19.80;62.40;;;;;;4988855;28;20554;-75
2022/04/20 13:33:23;;;;;;;3.47;2.83;;;19.80;62.20;;;;;;4989068;28;20507;-74
2022/04/20 13:35:53;;;;;;;4.47;3.13;;;19.80;60.50;;;;;;4989716;28;20463;-75
2022/04/20 13:38:21;;;;;;;5.10;3.53;;;19.80;63.70;;;;;;4990437;28;20463;-75
2022/04/20 13:40:48;;;;;;;4.80;3.47;;;19.80;62.50;;;;;;4989522;28;20602;-75
2022/04/20 13:43:15;;;;;;;5.73;3.13;;;19.80;62.00;;;;;;4989199;28;20498;-74
2022/04/20 13:45:44;;;;;;;3.97;3.07;;;19.80;62.30;;;;;;4989442;28;20497;-75
2022/04/20 13:48:13;;;;;;;3.40;3.10;;;19.80;62.70;;;;;;4989871;28;20551;-75
2022/04/20 13:50:41;;;;;;;3.33;3.03;;;19.90;62.60;;;;;;4989858;28;20472;-74
2022/04/20 13:53:09;;;;;;;3.70;3.30;;;19.80;62.20;;;;;;4990661;28;20469;-75
2022/04/20 13:55:36;;;;;;;3.47;3.00;;;19.80;62.00;;;;;;4990559;28;20458;-75
2022/04/20 13:58:04;;;;;;;4.30;3.20;;;19.70;62.00;;;;;;4990573;28;20451;-75
2022/04/20 14:00:31;;;;;;;4.80;3.30;;;19.60;62.20;;;;;;4991063;28;20454;-75
2022/04/20 14:03:00;;;;;;;5.43;3.57;;;19.70;63.40;;;;;;4993804;28;20974;-76
2022/04/20 14:05:28;;;;;;;16.63;5.30;;;19.80;63.20;;;;;;4993560;28;20455;-75
2022/04/20 14:07:56;;;;;;;6.70;3.43;;;19.90;64.00;;;;;;4993067;28;20789;-75
2022/04/20 14:10:24;;;;;;;6.50;3.40;;;20.00;62.30;;;;;;4993274;28;20459;-75
2022/04/20 14:12:52;;;;;;;12.83;5.27;;;20.10;63.80;;;;;;4993591;28;20455;-73
2022/04/20 14:15:18;;;;;;;7.93;4.37;;;20.10;64.10;;;;;;4993142;28;20565;-73
2022/04/20 14:17:46;;;;;;;6.63;4.00;;;20.20;62.90;;;;;;4993231;28;20478;-73
2022/04/20 14:20:15;;;;;;;4.90;3.23;;;20.30;62.90;;;;;;4993474;28;20693;-75
2022/04/20 14:22:42;;;;;;;4.87;3.33;;;20.20;64.10;;;;;;4989303;28;20486;-76
2022/04/20 14:33:27;;;;;;;7.50;4.80;;;20.50;61.50;;;;;;4988421;28;20935;-75
2022/04/20 14:35:56;;;;;;;11.60;5.93;;;20.60;61.80;;;;;;4988610;28;20448;-75
2022/04/20 14:38:23;;;;;;;18.60;6.70;;;20.60;61.40;;;;;;4987804;28;20570;-75
2022/04/20 14:40:51;;;;;;;9.20;4.43;;;20.70;62.80;;;;;;4988214;28;20566;-76
2022/04/20 14:43:19;;;;;;;5.20;3.83;;;20.80;62.90;;;;;;4988419;28;20440;-76
2022/04/20 14:45:46;;;;;;;6.20;3.73;;;20.80;62.90;;;;;;4988631;28;21251;-76
2022/04/20 14:48:13;;;;;;;5.30;3.07;;;20.80;62.30;;;;;;4987165;28;20495;-76
2022/04/20 14:50:41;;;;;;;7.33;4.83;;;20.90;62.50;;;;;;4986961;28;20607;-76
2022/04/20 14:53:09;;;;;;;6.97;4.37;;;21.00;62.20;;;;;;4988410;28;20502;-75
2022/04/20 14:55:37;;;;;;;5.40;3.93;;;21.00;63.30;;;;;;4988251;28;20542;-76
2022/04/20 14:58:07;;;;;;;8.77;4.00;;;21.10;63.40;;;;;;4987379;28;20470;-76
2022/04/20 15:00:34;;;;;;;5.90;4.30;;;21.20;62.10;;;;;;4987937;28;20497;-76
2022/04/20 15:03:02;;;;;;;5.10;3.70;;;21.20;60.50;;;;;;4987720;28;20916;-76
2022/04/20 15:05:29;;;;;;;5.50;4.10;;;21.20;62.00;;;;;;4987739;28;20467;-76
2022/04/20 15:07:57;;;;;;;8.03;4.63;;;21.30;61.80;;;;;;4987417;28;20486;-75
2022/04/20 15:10:25;;;;;;;5.73;4.73;;;21.30;62.30;;;;;;4987881;28;20487;-76
2022/04/20 15:12:52;;;;;;;4.80;3.87;;;21.30;61.30;;;;;;4987989;28;20468;-76
2022/04/20 15:15:20;;;;;;;4.83;3.90;;;21.30;62.00;;;;;;4987869;28;20467;-76
2022/04/20 15:17:47;;;;;;;6.73;3.83;;;21.40;60.50;;;;;;4986853;28;20531;-76
2022/04/20 15:20:14;;;;;;;8.33;4.57;;;21.40;62.40;;;;;;4987725;28;20462;-76
2022/04/20 15:22:42;;;;;;;6.33;4.07;;;21.50;61.80;;;;;;4987276;28;20510;-76
2022/04/20 15:25:11;;;;;;;8.50;5.00;;;21.60;61.70;;;;;;4987359;28;20535;-76
2022/04/20 15:27:39;;;;;;;16.90;5.80;;;21.60;60.90;;;;;;4986287;28;20964;-76
2022/04/20 15:30:08;;;;;;;9.27;6.30;;;21.70;61.50;;;;;;4987024;28;20471;-76
2022/04/20 15:32:35;;;;;;;13.20;6.33;;;21.80;62.60;;;;;;4987033;28;20580;-76
2022/04/20 15:35:04;;;;;;;18.27;7.70;;;21.80;61.70;;;;;;4987318;28;20887;-77
2022/04/20 15:37:31;;;;;;;5.40;4.53;;;21.90;61.40;;;;;;4986760;28;20475;-77
2022/04/20 15:39:59;;;;;;;7.13;5.30;;;21.90;59.80;;;;;;4987104;28;20936;-75
2022/04/20 15:42:26;;;;;;;4.00;3.60;;;22.00;60.90;;;;;;4986785;28;20480;-77
2022/04/20 15:44:57;;;;;;;4.20;3.80;;;22.00;60.10;;;;;;4987231;28;20573;-75
2022/04/20 15:47:24;;;;;;;3.83;3.40;;;22.00;59.40;;;;;;4986429;28;20495;-75
2022/04/20 15:49:51;;;;;;;5.90;5.30;;;22.00;59.50;;;;;;4986090;28;20467;-75
2022/04/20 15:52:19;;;;;;;5.57;3.97;;;22.00;59.40;;;;;;4986345;28;21003;-75
2022/04/20 16:00:12;;;;;;;8.67;3.90;;;22.00;58.90;;;;;;4986076;28;20455;-74
2022/04/20 16:00:20;;;;;;;5.90;3.50;;;22.00;59.50;;;;;;4986542;28;20498;-75
2022/04/20 16:02:51;;;;;;;5.37;3.50;;;22.00;58.70;;;;;;4986744;28;20443;-75
2022/04/20 16:05:18;;;;;;;6.23;4.20;;;22.00;59.10;;;;;;4987167;28;20444;-75
2022/04/20 16:07:45;;;;;;;4.20;3.80;;;22.00;59.00;;;;;;4984360;28;20891;-72
2022/04/20 16:10:12;;;;;;;7.63;3.77;;;22.00;58.30;;;;;;4987037;28;20502;-73
2022/04/20 16:12:39;;;;;;;6.57;3.87;;;22.10;59.30;;;;;;4986441;28;21075;-74
2022/04/20 16:15:08;;;;;;;7.43;3.53;;;22.10;58.40;;;;;;4986867;28;20463;-71
2022/04/20 16:17:36;;;;;;;3.43;3.13;;;22.10;58.90;;;;;;4985024;28;21014;-71
2022/04/20 16:20:03;;;;;;;5.50;2.87;;;22.10;58.60;;;;;;4986956;28;20455;-74
2022/04/20 16:22:32;;;;;;;4.70;3.70;;;22.10;58.50;;;;;;4986368;28;20484;-75
2022/04/20 16:24:59;;;;;;;5.17;3.57;;;22.10;58.00;;;;;;4987176;28;20464;-76
2022/04/20 16:27:27;;;;;;;4.80;3.33;;;22.00;59.00;;;;;;4986135;28;20879;-76
2022/04/20 16:29:54;;;;;;;3.70;3.33;;;22.00;58.70;;;;;;4987025;28;20927;-76
2022/04/20 16:32:22;;;;;;;4.90;3.67;;;22.00;58.10;;;;;;4986390;28;20566;-75
2022/04/20 16:34:50;;;;;;;4.10;3.47;;;21.80;58.30;;;;;;4986878;28;20484;-75
2022/04/20 16:37:17;;;;;;;3.97;3.63;;;21.70;58.70;;;;;;4985554;28;21211;-75
2022/04/20 16:39:44;;;;;;;6.00;4.43;;;21.60;58.30;;;;;;4986936;28;20543;-74
2022/04/20 16:42:12;;;;;;;4.10;3.80;;;21.60;58.20;;;;;;4986480;28;20484;-75
2022/04/20 16:44:39;;;;;;;5.20;4.67;;;21.50;58.50;;;;;;4986751;28;20475;-75
2022/04/20 16:47:07;;;;;;;4.40;3.83;;;21.30;57.90;;;;;;4985629;28;21015;-76
2022/04/20 16:49:34;;;;;;;6.40;4.73;;;21.20;58.90;;;;;;4986224;28;20466;-74
2022/04/20 16:52:02;;;;;;;12.53;4.90;;;21.10;58.70;;;;;;4986636;28;20562;-75
2022/04/20 16:54:29;;;;;;;5.93;4.70;;;20.90;58.40;;;;;;4986355;28;20833;-74
2022/04/20 16:56:56;;;;;;;5.30;4.77;;;20.80;57.30;;;;;;4985119;28;20525;-74
2022/04/20 16:59:23;;;;;;;5.40;4.90;;;20.60;57.10;;;;;;4986132;28;20470;-74
2022/04/20 17:01:50;;;;;;;7.67;4.80;;;20.20;56.10;;;;;;4986028;28;20562;-74
2022/04/20 17:04:17;;;;;;;5.50;4.10;;;19.90;56.60;;;;;;4986102;28;20491;-74
2022/04/20 17:06:44;;;;;;;4.30;3.90;;;19.80;58.00;;;;;;4985364;28;20557;-74
2022/04/20 17:09:12;;;;;;;7.30;4.90;;;19.70;59.20;;;;;;4986080;28;20555;-74
2022/04/20 17:11:39;;;;;;;6.43;4.50;;;19.50;58.80;;;;;;4986214;28;20562;-75
2022/04/20 17:14:07;;;;;;;6.33;4.53;;;19.40;58.20;;;;;;4985961;28;20455;-74
2022/04/20 17:16:34;;;;;;;4.87;4.37;;;19.30;58.30;;;;;;4984059;28;20451;-75
2022/04/20 17:19:01;;;;;;;5.20;4.20;;;19.30;58.70;;;;;;4985743;28;20544;-74
2022/04/20 17:26:58;;;;;;;7.10;4.07;;;19.10;59.20;;;;;;4985187;28;20490;-74
2022/04/20 17:29:25;;;;;;;5.10;4.33;;;19.00;60.30;;;;;;4985898;28;20963;-74
2022/04/20 17:31:52;;;;;;;8.67;5.13;;;19.00;61.60;;;;;;4985449;28;20535;-74
2022/04/20 17:34:19;;;;;;;4.30;3.60;;;18.90;58.90;;;;;;4986973;28;20469;-74
2022/04/20 17:36:47;;;;;;;4.67;3.97;;;18.80;59.20;;;;;;4989085;28;20456;-74
2022/04/20 17:39:16;;;;;;;5.23;4.07;;;18.70;58.90;;;;;;4989762;28;20470;-74
2022/04/20 17:41:45;;;;;;;4.30;3.90;;;18.60;59.10;;;;;;4989504;28;20566;-74
2022/04/20 17:44:13;;;;;;;5.60;4.13;;;18.50;59.40;;;;;;4989683;28;20518;-74
2022/04/20 17:46:40;;;;;;;5.00;4.10;;;18.40;59.00;;;;;;4988128;28;20495;-74
2022/04/20 17:49:07;;;;;;;8.00;4.70;;;18.40;58.40;;;;;;4989473;28;20459;-74
2022/04/20 17:51:35;;;;;;;4.93;3.97;;;18.20;57.50;;;;;;4989345;28;21190;-74
2022/04/20 17:54:03;;;;;;;6.37;4.50;;;18.10;57.80;;;;;;4989330;28;20506;-74
2022/04/20 17:56:32;;;;;;;5.27;4.20;;;18.10;58.30;;;;;;4988632;28;20469;-74